sensor_id;sensor_type;location;lat;lon;timestamp;temperature;humidity
33943;DHT22;66763;47.856;17.462;2023-03-24T00:01:48;12.60;51.40
33943;DHT22;66763;47.856;17.462;2023-03-24T00:04:14;12.50;51.30
33943;DHT22;66763;47.856;17.462;2023-03-24T00:06:41;12.60;51.40
33943;DHT22;66763;47.856;17.462;2023-03-24T00:09:08;12.50;51.40
33943;DHT22;66763;47.856;17.462;2023-03-24T00:11:33;12.60;51.40
33943;DHT22;66763;47.856;17.462;2023-03-24T00:13:59;12.60;51.40
33943;DHT22;66763;47.856;17.462;2023-03-24T00:16:25;12.60;51.40
33943;DHT22;66763;47.856;17.462;2023-03-24T00:18:51;12.60;51.40
33943;DHT22;66763;47.856;17.462;2023-03-24T00:21:20;12.50;51.40
33943;DHT22;66763;47.856;17.462;2023-03-24T00:23:49;12.60;51.40
33943;DHT22;66763;47.856;17.462;2023-03-24T00:26:15;12.50;51.40
33943;DHT22;66763;47.856;17.462;2023-03-24T00:28:41;12.60;51.40
33943;DHT22;66763;47.856;17.462;2023-03-24T00:31:08;12.50;51.40
33943;DHT22;66763;47.856;17.462;2023-03-24T00:33:34;12.60;51.40
33943;DHT22;66763;47.856;17.462;2023-03-24T00:36:06;12.60;51.40
33943;DHT22;66763;47.856;17.462;2023-03-24T00:38:33;12.50;51.40
33943;DHT22;66763;47.856;17.462;2023-03-24T00:40:59;12.60;51.40
33943;DHT22;66763;47.856;17.462;2023-03-24T00:43:24;12.60;51.40
33943;DHT22;66763;47.856;17.462;2023-03-24T00:45:56;12.60;51.40
33943;DHT22;66763;47.856;17.462;2023-03-24T00:48:22;12.60;51.40
33943;DHT22;66763;47.856;17.462;2023-03-24T00:50:50;12.60;51.50
33943;DHT22;66763;47.856;17.462;2023-03-24T00:53:16;12.60;51.40
33943;DHT22;66763;47.856;17.462;2023-03-24T00:55:43;12.50;51.40
33943;DHT22;66763;47.856;17.462;2023-03-24T00:58:13;12.60;51.40
33943;DHT22;66763;47.856;17.462;2023-03-24T01:00:43;12.60;52.00
33943;DHT22;66763;47.856;17.462;2023-03-24T01:03:08;12.60;51.40
33943;DHT22;66763;47.856;17.462;2023-03-24T01:05:34;12.60;51.40
33943;DHT22;66763;47.856;17.462;2023-03-24T01:08:00;12.60;51.40
33943;DHT22;66763;47.856;17.462;2023-03-24T01:10:30;12.60;51.40
33943;DHT22;66763;47.856;17.462;2023-03-24T01:12:56;12.60;51.40
33943;DHT22;66763;47.856;17.462;2023-03-24T01:15:24;12.60;51.40
33943;DHT22;66763;47.856;17.462;2023-03-24T01:17:50;12.60;51.40
33943;DHT22;66763;47.856;17.462;2023-03-24T01:20:17;12.60;51.40
33943;DHT22;66763;47.856;17.462;2023-03-24T01:22:43;12.60;51.40
33943;DHT22;66763;47.856;17.462;2023-03-24T01:25:16;12.60;51.30
33943;DHT22;66763;47.856;17.462;2023-03-24T01:27:42;12.60;51.40
33943;DHT22;66763;47.856;17.462;2023-03-24T01:30:10;12.60;51.40
33943;DHT22;66763;47.856;17.462;2023-03-24T01:32:37;12.60;51.30
33943;DHT22;66763;47.856;17.462;2023-03-24T01:35:02;12.60;51.40
33943;DHT22;66763;47.856;17.462;2023-03-24T01:37:28;12.60;51.40
33943;DHT22;66763;47.856;17.462;2023-03-24T01:39:54;12.60;51.40
33943;DHT22;66763;47.856;17.462;2023-03-24T01:42:20;12.60;51.40
33943;DHT22;66763;47.856;17.462;2023-03-24T01:44:47;12.60;51.40
33943;DHT22;66763;47.856;17.462;2023-03-24T01:47:13;12.60;51.40
33943;DHT22;66763;47.856;17.462;2023-03-24T01:49:44;12.60;51.40
33943;DHT22;66763;47.856;17.462;2023-03-24T01:52:17;12.60;51.30
33943;DHT22;66763;47.856;17.462;2023-03-24T01:54:51;12.60;51.40
33943;DHT22;66763;47.856;17.462;2023-03-24T01:57:22;12.60;51.40
33943;DHT22;66763;47.856;17.462;2023-03-24T01:59:49;12.60;51.40
33943;DHT22;66763;47.856;17.462;2023-03-24T02:02:15;12.60;51.40
33943;DHT22;66763;47.856;17.462;2023-03-24T02:04:43;12.60;51.50
33943;DHT22;66763;47.856;17.462;2023-03-24T02:07:12;12.60;51.40
33943;DHT22;66763;47.856;17.462;2023-03-24T02:09:40;12.60;51.40
33943;DHT22;66763;47.856;17.462;2023-03-24T02:12:05;12.60;51.30
33943;DHT22;66763;47.856;17.462;2023-03-24T02:14:31;12.60;51.40
33943;DHT22;66763;47.856;17.462;2023-03-24T02:17:01;12.60;51.40
33943;DHT22;66763;47.856;17.462;2023-03-24T02:36:05;12.60;51.50
33943;DHT22;66763;47.856;17.462;2023-03-24T02:38:44;12.50;51.40
33943;DHT22;66763;47.856;17.462;2023-03-24T02:44:10;12.60;51.50
33943;DHT22;66763;47.856;17.462;2023-03-24T02:46:42;12.60;51.50
33943;DHT22;66763;47.856;17.462;2023-03-24T02:51:56;12.60;51.50
33943;DHT22;66763;47.856;17.462;2023-03-24T02:59:39;12.60;51.50
33943;DHT22;66763;47.856;17.462;2023-03-24T03:02:13;12.60;51.50
33943;DHT22;66763;47.856;17.462;2023-03-24T03:04:49;12.60;51.50
33943;DHT22;66763;47.856;17.462;2023-03-24T03:07:17;12.60;51.50
33943;DHT22;66763;47.856;17.462;2023-03-24T03:09:56;12.60;51.50
33943;DHT22;66763;47.856;17.462;2023-03-24T03:12:24;12.60;51.50
33943;DHT22;66763;47.856;17.462;2023-03-24T03:14:52;12.60;51.50
33943;DHT22;66763;47.856;17.462;2023-03-24T03:17:23;12.60;51.50
33943;DHT22;66763;47.856;17.462;2023-03-24T03:19:53;12.60;51.50
33943;DHT22;66763;47.856;17.462;2023-03-24T03:22:22;12.50;51.50
33943;DHT22;66763;47.856;17.462;2023-03-24T03:24:49;12.60;51.50
33943;DHT22;66763;47.856;17.462;2023-03-24T03:27:19;12.60;51.50
33943;DHT22;66763;47.856;17.462;2023-03-24T03:29:46;12.60;51.40
33943;DHT22;66763;47.856;17.462;2023-03-24T03:32:17;12.60;51.50
33943;DHT22;66763;47.856;17.462;2023-03-24T03:34:48;12.60;51.60
33943;DHT22;66763;47.856;17.462;2023-03-24T03:37:19;12.50;51.50
33943;DHT22;66763;47.856;17.462;2023-03-24T03:39:56;12.60;51.50
33943;DHT22;66763;47.856;17.462;2023-03-24T03:42:23;12.60;51.60
33943;DHT22;66763;47.856;17.462;2023-03-24T03:44:49;12.60;51.50
33943;DHT22;66763;47.856;17.462;2023-03-24T03:47:15;12.60;51.60
33943;DHT22;66763;47.856;17.462;2023-03-24T03:49:41;12.60;51.60
33943;DHT22;66763;47.856;17.462;2023-03-24T03:52:06;12.60;51.60
33943;DHT22;66763;47.856;17.462;2023-03-24T03:54:32;12.60;51.60
33943;DHT22;66763;47.856;17.462;2023-03-24T03:56:58;12.60;51.70
33943;DHT22;66763;47.856;17.462;2023-03-24T03:59:26;12.60;51.70
33943;DHT22;66763;47.856;17.462;2023-03-24T04:01:52;12.60;51.60
33943;DHT22;66763;47.856;17.462;2023-03-24T04:33:11;12.60;51.70
33943;DHT22;66763;47.856;17.462;2023-03-24T04:35:44;12.60;51.70
33943;DHT22;66763;47.856;17.462;2023-03-24T04:38:15;12.50;51.60
33943;DHT22;66763;47.856;17.462;2023-03-24T04:40:42;12.60;51.60
33943;DHT22;66763;47.856;17.462;2023-03-24T04:43:11;12.50;51.60
33943;DHT22;66763;47.856;17.462;2023-03-24T04:45:38;12.60;51.70
33943;DHT22;66763;47.856;17.462;2023-03-24T04:48:04;12.60;51.80
33943;DHT22;66763;47.856;17.462;2023-03-24T04:50:39;12.60;51.70
33943;DHT22;66763;47.856;17.462;2023-03-24T04:53:05;12.60;51.60
33943;DHT22;66763;47.856;17.462;2023-03-24T04:55:49;12.60;51.60
33943;DHT22;66763;47.856;17.462;2023-03-24T04:58:15;12.60;51.70
33943;DHT22;66763;47.856;17.462;2023-03-24T05:00:41;12.60;51.80
33943;DHT22;66763;47.856;17.462;2023-03-24T05:03:08;12.60;51.80
33943;DHT22;66763;47.856;17.462;2023-03-24T05:05:38;12.60;51.80
33943;DHT22;66763;47.856;17.462;2023-03-24T05:08:04;12.60;51.80
33943;DHT22;66763;47.856;17.462;2023-03-24T05:10:29;12.50;51.70
33943;DHT22;66763;47.856;17.462;2023-03-24T05:12:55;12.60;51.80
33943;DHT22;66763;47.856;17.462;2023-03-24T05:15:21;12.50;51.70
33943;DHT22;66763;47.856;17.462;2023-03-24T05:17:46;12.60;51.70
33943;DHT22;66763;47.856;17.462;2023-03-24T05:20:12;12.60;51.70
33943;DHT22;66763;47.856;17.462;2023-03-24T05:22:39;12.60;51.60
33943;DHT22;66763;47.856;17.462;2023-03-24T05:25:05;12.60;51.60
33943;DHT22;66763;47.856;17.462;2023-03-24T05:27:30;12.60;51.60
33943;DHT22;66763;47.856;17.462;2023-03-24T05:29:56;12.60;51.50
33943;DHT22;66763;47.856;17.462;2023-03-24T05:32:22;12.60;51.60
33943;DHT22;66763;47.856;17.462;2023-03-24T05:34:47;12.60;51.60
33943;DHT22;66763;47.856;17.462;2023-03-24T05:37:12;12.60;51.50
33943;DHT22;66763;47.856;17.462;2023-03-24T05:39:41;12.60;51.50
33943;DHT22;66763;47.856;17.462;2023-03-24T05:42:06;12.60;51.50
33943;DHT22;66763;47.856;17.462;2023-03-24T05:44:32;12.60;51.50
33943;DHT22;66763;47.856;17.462;2023-03-24T05:46:57;12.60;51.40
33943;DHT22;66763;47.856;17.462;2023-03-24T05:49:23;12.60;51.50
33943;DHT22;66763;47.856;17.462;2023-03-24T05:51:48;12.60;51.40
33943;DHT22;66763;47.856;17.462;2023-03-24T05:54:14;12.60;51.30
33943;DHT22;66763;47.856;17.462;2023-03-24T05:56:40;12.60;51.40
33943;DHT22;66763;47.856;17.462;2023-03-24T05:59:05;12.60;51.40
33943;DHT22;66763;47.856;17.462;2023-03-24T06:01:31;12.60;51.40
33943;DHT22;66763;47.856;17.462;2023-03-24T06:03:56;12.60;51.40
33943;DHT22;66763;47.856;17.462;2023-03-24T06:06:22;12.60;51.40
33943;DHT22;66763;47.856;17.462;2023-03-24T06:08:47;12.60;51.40
33943;DHT22;66763;47.856;17.462;2023-03-24T06:11:13;12.60;51.40
33943;DHT22;66763;47.856;17.462;2023-03-24T06:13:39;12.60;51.40
33943;DHT22;66763;47.856;17.462;2023-03-24T06:16:05;12.60;51.40
33943;DHT22;66763;47.856;17.462;2023-03-24T06:18:31;12.60;51.40
33943;DHT22;66763;47.856;17.462;2023-03-24T06:20:58;12.60;51.40
33943;DHT22;66763;47.856;17.462;2023-03-24T06:23:24;12.60;51.40
33943;DHT22;66763;47.856;17.462;2023-03-24T06:25:53;12.60;51.40
33943;DHT22;66763;47.856;17.462;2023-03-24T06:28:19;12.60;51.40
33943;DHT22;66763;47.856;17.462;2023-03-24T06:30:45;12.60;52.00
33943;DHT22;66763;47.856;17.462;2023-03-24T06:33:12;12.60;51.40
33943;DHT22;66763;47.856;17.462;2023-03-24T06:35:38;12.60;51.40
33943;DHT22;66763;47.856;17.462;2023-03-24T06:38:03;12.60;51.40
33943;DHT22;66763;47.856;17.462;2023-03-24T06:40:29;12.60;51.40
33943;DHT22;66763;47.856;17.462;2023-03-24T06:42:55;12.60;51.40
33943;DHT22;66763;47.856;17.462;2023-03-24T06:45:20;12.60;52.00
33943;DHT22;66763;47.856;17.462;2023-03-24T06:47:46;12.60;51.40
33943;DHT22;66763;47.856;17.462;2023-03-24T06:50:11;12.60;51.40
33943;DHT22;66763;47.856;17.462;2023-03-24T06:52:37;12.60;51.30
33943;DHT22;66763;47.856;17.462;2023-03-24T06:55:03;12.60;51.40
33943;DHT22;66763;47.856;17.462;2023-03-24T06:57:28;12.60;51.40
33943;DHT22;66763;47.856;17.462;2023-03-24T06:59:54;12.60;51.40
33943;DHT22;66763;47.856;17.462;2023-03-24T07:02:20;12.60;51.40
33943;DHT22;66763;47.856;17.462;2023-03-24T07:04:45;12.60;51.40
33943;DHT22;66763;47.856;17.462;2023-03-24T07:07:11;12.60;51.40
33943;DHT22;66763;47.856;17.462;2023-03-24T07:09:37;12.60;51.40
33943;DHT22;66763;47.856;17.462;2023-03-24T07:12:03;12.60;51.40
33943;DHT22;66763;47.856;17.462;2023-03-24T07:14:29;12.60;51.40
33943;DHT22;66763;47.856;17.462;2023-03-24T07:16:55;12.60;51.40
33943;DHT22;66763;47.856;17.462;2023-03-24T07:19:20;12.60;51.40
33943;DHT22;66763;47.856;17.462;2023-03-24T07:21:47;12.60;51.40
33943;DHT22;66763;47.856;17.462;2023-03-24T07:24:17;12.60;51.40
33943;DHT22;66763;47.856;17.462;2023-03-24T07:26:43;12.60;51.40
33943;DHT22;66763;47.856;17.462;2023-03-24T07:29:08;12.60;51.40
33943;DHT22;66763;47.856;17.462;2023-03-24T07:31:34;12.60;51.40
33943;DHT22;66763;47.856;17.462;2023-03-24T07:34:05;12.60;51.40
33943;DHT22;66763;47.856;17.462;2023-03-24T07:36:31;12.60;51.40
33943;DHT22;66763;47.856;17.462;2023-03-24T07:38:56;12.60;51.40
33943;DHT22;66763;47.856;17.462;2023-03-24T07:41:22;12.60;51.40
33943;DHT22;66763;47.856;17.462;2023-03-24T07:43:48;12.60;51.40
33943;DHT22;66763;47.856;17.462;2023-03-24T07:46:14;12.60;51.40
33943;DHT22;66763;47.856;17.462;2023-03-24T07:48:39;12.60;51.40
33943;DHT22;66763;47.856;17.462;2023-03-24T07:51:05;12.50;51.30
33943;DHT22;66763;47.856;17.462;2023-03-24T07:53:31;12.60;51.40
33943;DHT22;66763;47.856;17.462;2023-03-24T07:55:58;12.60;51.40
33943;DHT22;66763;47.856;17.462;2023-03-24T07:58:23;12.60;51.40
33943;DHT22;66763;47.856;17.462;2023-03-24T08:00:49;12.60;51.40
33943;DHT22;66763;47.856;17.462;2023-03-24T08:03:15;12.60;51.40
33943;DHT22;66763;47.856;17.462;2023-03-24T08:05:40;12.60;51.40
33943;DHT22;66763;47.856;17.462;2023-03-24T08:08:06;12.60;51.40
33943;DHT22;66763;47.856;17.462;2023-03-24T08:10:32;12.60;51.40
33943;DHT22;66763;47.856;17.462;2023-03-24T08:12:57;12.60;51.40
33943;DHT22;66763;47.856;17.462;2023-03-24T08:15:23;12.60;51.40
33943;DHT22;66763;47.856;17.462;2023-03-24T08:17:49;12.60;51.40
33943;DHT22;66763;47.856;17.462;2023-03-24T08:20:15;12.60;51.40
33943;DHT22;66763;47.856;17.462;2023-03-24T08:22:41;12.60;51.40
33943;DHT22;66763;47.856;17.462;2023-03-24T08:25:08;12.60;51.40
33943;DHT22;66763;47.856;17.462;2023-03-24T08:27:34;12.60;51.40
33943;DHT22;66763;47.856;17.462;2023-03-24T08:30:03;12.60;51.40
33943;DHT22;66763;47.856;17.462;2023-03-24T08:32:28;12.60;51.40
33943;DHT22;66763;47.856;17.462;2023-03-24T08:34:55;12.70;51.50
33943;DHT22;66763;47.856;17.462;2023-03-24T08:37:21;12.60;51.50
33943;DHT22;66763;47.856;17.462;2023-03-24T08:39:46;12.70;51.50
33943;DHT22;66763;47.856;17.462;2023-03-24T08:42:12;12.60;51.50
33943;DHT22;66763;47.856;17.462;2023-03-24T08:44:37;12.60;51.40
33943;DHT22;66763;47.856;17.462;2023-03-24T08:47:03;12.60;51.50
33943;DHT22;66763;47.856;17.462;2023-03-24T08:49:28;12.70;51.50
33943;DHT22;66763;47.856;17.462;2023-03-24T08:51:54;12.70;51.50
33943;DHT22;66763;47.856;17.462;2023-03-24T08:54:19;12.70;51.50
33943;DHT22;66763;47.856;17.462;2023-03-24T08:56:47;12.70;51.50
33943;DHT22;66763;47.856;17.462;2023-03-24T08:59:13;12.70;51.50
33943;DHT22;66763;47.856;17.462;2023-03-24T09:01:39;12.70;51.60
33943;DHT22;66763;47.856;17.462;2023-03-24T09:04:04;12.60;51.50
33943;DHT22;66763;47.856;17.462;2023-03-24T09:06:30;12.70;51.50
33943;DHT22;66763;47.856;17.462;2023-03-24T09:08:57;12.70;51.50
33943;DHT22;66763;47.856;17.462;2023-03-24T09:11:22;12.70;51.60
33943;DHT22;66763;47.856;17.462;2023-03-24T09:13:48;12.70;51.50
33943;DHT22;66763;47.856;17.462;2023-03-24T09:16:14;12.70;51.50
33943;DHT22;66763;47.856;17.462;2023-03-24T09:18:40;12.70;51.60
33943;DHT22;66763;47.856;17.462;2023-03-24T09:21:06;12.70;51.50
33943;DHT22;66763;47.856;17.462;2023-03-24T09:23:32;12.70;51.60
33943;DHT22;66763;47.856;17.462;2023-03-24T09:25:58;12.70;51.50
33943;DHT22;66763;47.856;17.462;2023-03-24T09:28:23;12.70;51.50
33943;DHT22;66763;47.856;17.462;2023-03-24T09:30:49;12.70;51.60
33943;DHT22;66763;47.856;17.462;2023-03-24T09:33:15;12.70;51.60
33943;DHT22;66763;47.856;17.462;2023-03-24T09:35:41;12.70;51.60
33943;DHT22;66763;47.856;17.462;2023-03-24T09:38:07;12.70;51.60
33943;DHT22;66763;47.856;17.462;2023-03-24T09:40:36;12.80;51.60
33943;DHT22;66763;47.856;17.462;2023-03-24T09:43:03;12.70;51.60
33943;DHT22;66763;47.856;17.462;2023-03-24T09:45:32;12.70;51.60
33943;DHT22;66763;47.856;17.462;2023-03-24T09:50:27;12.70;51.50
33943;DHT22;66763;47.856;17.462;2023-03-24T09:52:55;12.80;51.60
33943;DHT22;66763;47.856;17.462;2023-03-24T09:55:24;12.70;51.60
33943;DHT22;66763;47.856;17.462;2023-03-24T09:57:50;12.80;51.60
33943;DHT22;66763;47.856;17.462;2023-03-24T10:02:49;12.70;51.60
33943;DHT22;66763;47.856;17.462;2023-03-24T10:05:16;12.70;51.50
33943;DHT22;66763;47.856;17.462;2023-03-24T10:10:35;12.80;51.70
33943;DHT22;66763;47.856;17.462;2023-03-24T10:13:05;12.80;51.70
33943;DHT22;66763;47.856;17.462;2023-03-24T10:20:25;12.70;51.60
33943;DHT22;66763;47.856;17.462;2023-03-24T10:30:34;12.80;51.70
33943;DHT22;66763;47.856;17.462;2023-03-24T10:33:01;12.80;51.70
33943;DHT22;66763;47.856;17.462;2023-03-24T10:35:28;12.80;51.70
33943;DHT22;66763;47.856;17.462;2023-03-24T10:37:55;12.80;51.70
33943;DHT22;66763;47.856;17.462;2023-03-24T10:40:24;12.80;51.70
33943;DHT22;66763;47.856;17.462;2023-03-24T10:42:51;12.80;51.70
33943;DHT22;66763;47.856;17.462;2023-03-24T10:45:24;12.80;51.70
33943;DHT22;66763;47.856;17.462;2023-03-24T10:47:52;12.80;51.60
33943;DHT22;66763;47.856;17.462;2023-03-24T10:50:19;12.80;51.80
33943;DHT22;66763;47.856;17.462;2023-03-24T10:52:48;12.70;52.30
33943;DHT22;66763;47.856;17.462;2023-03-24T10:55:15;12.80;51.70
33943;DHT22;66763;47.856;17.462;2023-03-24T10:57:42;12.80;51.70
33943;DHT22;66763;47.856;17.462;2023-03-24T11:00:15;12.80;52.00
33943;DHT22;66763;47.856;17.462;2023-03-24T11:02:53;12.90;52.50
33943;DHT22;66763;47.856;17.462;2023-03-24T11:05:20;13.00;53.50
33943;DHT22;66763;47.856;17.462;2023-03-24T11:07:50;13.20;53.80
33943;DHT22;66763;47.856;17.462;2023-03-24T11:10:22;13.40;53.00
33943;DHT22;66763;47.856;17.462;2023-03-24T11:17:54;14.10;51.70
33943;DHT22;66763;47.856;17.462;2023-03-24T11:20:25;14.20;51.40
33943;DHT22;66763;47.856;17.462;2023-03-24T11:25:25;14.60;50.90
33943;DHT22;66763;47.856;17.462;2023-03-24T11:27:52;14.80;50.50
33943;DHT22;66763;47.856;17.462;2023-03-24T11:30:18;14.90;50.30
33943;DHT22;66763;47.856;17.462;2023-03-24T11:32:44;15.00;50.00
33943;DHT22;66763;47.856;17.462;2023-03-24T11:35:13;15.10;49.90
33943;DHT22;66763;47.856;17.462;2023-03-24T11:37:41;15.20;49.60
33943;DHT22;66763;47.856;17.462;2023-03-24T11:42:42;15.40;49.40
33943;DHT22;66763;47.856;17.462;2023-03-24T11:47:53;15.50;49.00
33943;DHT22;66763;47.856;17.462;2023-03-24T11:50:27;15.60;49.00
33943;DHT22;66763;47.856;17.462;2023-03-24T11:53:01;15.70;49.00
33943;DHT22;66763;47.856;17.462;2023-03-24T11:55:33;15.70;49.00
33943;DHT22;66763;47.856;17.462;2023-03-24T11:58:04;15.80;49.00
33943;DHT22;66763;47.856;17.462;2023-03-24T12:00:34;15.90;49.00
33943;DHT22;66763;47.856;17.462;2023-03-24T12:13:13;16.30;49.50
33943;DHT22;66763;47.856;17.462;2023-03-24T12:23:28;16.50;49.30
33943;DHT22;66763;47.856;17.462;2023-03-24T12:26:11;16.50;49.90
33943;DHT22;66763;47.856;17.462;2023-03-24T12:36:56;16.70;49.30
33943;DHT22;66763;47.856;17.462;2023-03-24T12:39:26;16.70;49.30
33943;DHT22;66763;47.856;17.462;2023-03-24T12:42:04;16.70;49.90
33943;DHT22;66763;47.856;17.462;2023-03-24T12:44:41;16.80;49.20
33943;DHT22;66763;47.856;17.462;2023-03-24T12:52:44;16.90;49.10
33943;DHT22;66763;47.856;17.462;2023-03-24T12:55:20;16.90;49.10
33943;DHT22;66763;47.856;17.462;2023-03-24T13:00:19;17.00;49.20
33943;DHT22;66763;47.856;17.462;2023-03-24T13:02:47;17.00;49.00
33943;DHT22;66763;47.856;17.462;2023-03-24T13:05:17;17.10;48.90
33943;DHT22;66763;47.856;17.462;2023-03-24T13:07:45;17.10;48.90
33943;DHT22;66763;47.856;17.462;2023-03-24T13:10:21;17.20;48.90
33943;DHT22;66763;47.856;17.462;2023-03-24T13:12:51;17.20;48.80
33943;DHT22;66763;47.856;17.462;2023-03-24T13:15:38;17.20;48.80
33943;DHT22;66763;47.856;17.462;2023-03-24T13:18:28;17.30;48.80
33943;DHT22;66763;47.856;17.462;2023-03-24T13:20:53;17.30;48.90
33943;DHT22;66763;47.856;17.462;2023-03-24T13:28:31;17.40;48.80
33943;DHT22;66763;47.856;17.462;2023-03-24T13:31:00;17.40;48.80
33943;DHT22;66763;47.856;17.462;2023-03-24T13:33:27;17.50;48.80
33943;DHT22;66763;47.856;17.462;2023-03-24T13:38:29;17.50;48.70
33943;DHT22;66763;47.856;17.462;2023-03-24T13:40:58;17.50;48.80
33943;DHT22;66763;47.856;17.462;2023-03-24T13:43:30;17.60;48.90
33943;DHT22;66763;47.856;17.462;2023-03-24T13:46:06;17.60;48.80
33943;DHT22;66763;47.856;17.462;2023-03-24T13:48:36;17.60;48.80
33943;DHT22;66763;47.856;17.462;2023-03-24T13:51:04;17.60;48.80
33943;DHT22;66763;47.856;17.462;2023-03-24T13:55:56;17.70;48.70
33943;DHT22;66763;47.856;17.462;2023-03-24T13:58:24;17.70;48.70
33943;DHT22;66763;47.856;17.462;2023-03-24T14:06:02;17.80;48.60
33943;DHT22;66763;47.856;17.462;2023-03-24T14:21:42;17.90;48.20
33943;DHT22;66763;47.856;17.462;2023-03-24T14:24:14;18.00;48.30
33943;DHT22;66763;47.856;17.462;2023-03-24T14:26:41;18.00;48.20
33943;DHT22;66763;47.856;17.462;2023-03-24T14:29:25;18.00;48.20
33943;DHT22;66763;47.856;17.462;2023-03-24T14:31:57;18.00;48.20
33943;DHT22;66763;47.856;17.462;2023-03-24T14:34:25;18.10;48.20
33943;DHT22;66763;47.856;17.462;2023-03-24T14:36:59;18.10;48.20
33943;DHT22;66763;47.856;17.462;2023-03-24T14:39:35;18.10;48.10
33943;DHT22;66763;47.856;17.462;2023-03-24T14:47:15;18.20;48.20
33943;DHT22;66763;47.856;17.462;2023-03-24T14:49:43;18.20;48.20
33943;DHT22;66763;47.856;17.462;2023-03-24T14:52:11;18.20;48.20
33943;DHT22;66763;47.856;17.462;2023-03-24T14:57:10;18.20;48.10
33943;DHT22;66763;47.856;17.462;2023-03-24T15:02:26;18.30;48.10
33943;DHT22;66763;47.856;17.462;2023-03-24T15:07:35;18.30;48.00
33943;DHT22;66763;47.856;17.462;2023-03-24T15:10:01;18.30;48.10
33943;DHT22;66763;47.856;17.462;2023-03-24T15:12:26;18.40;48.30
33943;DHT22;66763;47.856;17.462;2023-03-24T15:14:52;18.40;48.20
33943;DHT22;66763;47.856;17.462;2023-03-24T15:17:20;18.40;48.20
33943;DHT22;66763;47.856;17.462;2023-03-24T15:19:48;18.40;48.20
33943;DHT22;66763;47.856;17.462;2023-03-24T15:22:15;18.40;48.10
33943;DHT22;66763;47.856;17.462;2023-03-24T15:24:40;18.50;48.20
33943;DHT22;66763;47.856;17.462;2023-03-24T15:29:32;18.50;48.10
33943;DHT22;66763;47.856;17.462;2023-03-24T15:31:57;18.50;48.10
33943;DHT22;66763;47.856;17.462;2023-03-24T15:34:30;18.50;48.00
33943;DHT22;66763;47.856;17.462;2023-03-24T15:37:01;18.60;48.10
33943;DHT22;66763;47.856;17.462;2023-03-24T15:39:28;18.50;48.40
33943;DHT22;66763;47.856;17.462;2023-03-24T15:41:56;18.60;48.90
33943;DHT22;66763;47.856;17.462;2023-03-24T15:44:25;18.60;49.00
33943;DHT22;66763;47.856;17.462;2023-03-24T15:46:56;18.60;48.90
33943;DHT22;66763;47.856;17.462;2023-03-24T15:49:26;18.60;48.90
33943;DHT22;66763;47.856;17.462;2023-03-24T15:51:55;18.60;48.80
33943;DHT22;66763;47.856;17.462;2023-03-24T15:54:40;18.70;48.80
33943;DHT22;66763;47.856;17.462;2023-03-24T15:57:19;18.70;48.70
33943;DHT22;66763;47.856;17.462;2023-03-24T15:59:49;18.70;48.60
33943;DHT22;66763;47.856;17.462;2023-03-24T16:04:59;18.80;48.60
33943;DHT22;66763;47.856;17.462;2023-03-24T16:07:30;18.80;48.50
33943;DHT22;66763;47.856;17.462;2023-03-24T16:10:01;18.90;48.60
33943;DHT22;66763;47.856;17.462;2023-03-24T16:12:30;18.90;48.90
33943;DHT22;66763;47.856;17.462;2023-03-24T16:14:56;18.90;49.20
33943;DHT22;66763;47.856;17.462;2023-03-24T16:17:21;19.00;49.30
33943;DHT22;66763;47.856;17.462;2023-03-24T16:19:48;18.80;50.10
33943;DHT22;66763;47.856;17.462;2023-03-24T16:22:13;18.60;50.90
33943;DHT22;66763;47.856;17.462;2023-03-24T16:24:39;18.50;51.40
33943;DHT22;66763;47.856;17.462;2023-03-24T16:27:05;18.50;51.40
33943;DHT22;66763;47.856;17.462;2023-03-24T16:29:30;18.50;51.20
33943;DHT22;66763;47.856;17.462;2023-03-24T16:31:56;18.40;51.40
33943;DHT22;66763;47.856;17.462;2023-03-24T16:34:22;18.40;51.70
33943;DHT22;66763;47.856;17.462;2023-03-24T16:36:51;18.40;51.70
33943;DHT22;66763;47.856;17.462;2023-03-24T16:39:21;18.40;51.50
33943;DHT22;66763;47.856;17.462;2023-03-24T16:41:47;18.50;51.50
33943;DHT22;66763;47.856;17.462;2023-03-24T16:44:13;18.50;51.40
33943;DHT22;66763;47.856;17.462;2023-03-24T16:46:39;18.50;51.40
33943;DHT22;66763;47.856;17.462;2023-03-24T16:49:09;18.60;51.30
33943;DHT22;66763;47.856;17.462;2023-03-24T16:51:36;18.60;51.30
33943;DHT22;66763;47.856;17.462;2023-03-24T16:54:01;18.60;51.30
33943;DHT22;66763;47.856;17.462;2023-03-24T16:56:28;18.70;51.20
33943;DHT22;66763;47.856;17.462;2023-03-24T16:58:54;18.70;51.20
33943;DHT22;66763;47.856;17.462;2023-03-24T17:03:52;18.80;51.70
33943;DHT22;66763;47.856;17.462;2023-03-24T17:06:19;18.90;50.80
33943;DHT22;66763;47.856;17.462;2023-03-24T17:08:44;18.90;50.90
33943;DHT22;66763;47.856;17.462;2023-03-24T17:11:10;18.90;50.90
33943;DHT22;66763;47.856;17.462;2023-03-24T17:13:35;19.00;51.20
33943;DHT22;66763;47.856;17.462;2023-03-24T17:16:01;19.00;50.90
33943;DHT22;66763;47.856;17.462;2023-03-24T17:18:27;19.00;50.80
33943;DHT22;66763;47.856;17.462;2023-03-24T17:20:52;19.00;50.90
33943;DHT22;66763;47.856;17.462;2023-03-24T17:23:18;19.00;51.10
33943;DHT22;66763;47.856;17.462;2023-03-24T17:25:44;19.00;51.70
33943;DHT22;66763;47.856;17.462;2023-03-24T17:28:15;19.00;51.40
33943;DHT22;66763;47.856;17.462;2023-03-24T17:30:41;19.00;51.20
33943;DHT22;66763;47.856;17.462;2023-03-24T17:33:10;19.00;50.80
33943;DHT22;66763;47.856;17.462;2023-03-24T17:35:35;19.00;50.60
33943;DHT22;66763;47.856;17.462;2023-03-24T17:38:01;19.10;50.50
33943;DHT22;66763;47.856;17.462;2023-03-24T17:40:27;19.10;50.40
33943;DHT22;66763;47.856;17.462;2023-03-24T17:42:53;19.20;50.40
33943;DHT22;66763;47.856;17.462;2023-03-24T17:45:18;19.20;51.00
33943;DHT22;66763;47.856;17.462;2023-03-24T17:47:44;19.20;50.90
33943;DHT22;66763;47.856;17.462;2023-03-24T17:50:10;19.30;51.20
33943;DHT22;66763;47.856;17.462;2023-03-24T17:52:38;19.30;51.20
33943;DHT22;66763;47.856;17.462;2023-03-24T17:55:04;19.30;51.10
33943;DHT22;66763;47.856;17.462;2023-03-24T17:57:31;19.30;51.20
33943;DHT22;66763;47.856;17.462;2023-03-24T17:59:57;19.30;51.10
33943;DHT22;66763;47.856;17.462;2023-03-24T18:02:22;19.40;51.00
33943;DHT22;66763;47.856;17.462;2023-03-24T18:04:48;19.30;50.90
33943;DHT22;66763;47.856;17.462;2023-03-24T18:07:14;19.40;50.90
33943;DHT22;66763;47.856;17.462;2023-03-24T18:09:39;19.40;50.70
33943;DHT22;66763;47.856;17.462;2023-03-24T18:12:05;19.40;50.70